Time;durP1;ratioP1;P1;durP2;ratioP2;P2;SDS_P1;SDS_P2;PMS_P1;PMS_P2;Temp;Humidity;BMP_temperature;BMP_pressure;BME280_temperature;BME280_humidity;BME280_pressure;Samples;Min_cycle;Max_cycle;Signal;HPM_P1;HPM_P2
2020/12/27 00:02:05;;;;;;;;;;;;;;;1.40;96.92;98122.19;5045287;28;19924;-81
2020/12/27 00:04:31;;;;;;;;;;;;;;;1.37;97.64;98104.44;5063437;28;19920;-80
2020/12/27 00:06:56;;;;;;;;;;;;;;;1.40;97.18;98105.25;5047153;28;20480;-80
2020/12/27 00:09:22;;;;;;;;;;;;;;;1.43;97.54;98094.22;5063699;28;20369;-80
2020/12/27 00:11:50;;;;;;;;;;;;;;;1.43;96.91;98105.22;5031548;28;19924;-80
2020/12/27 00:14:16;;;;;;;;;;;;;;;1.44;96.98;98088.31;5018085;28;19916;-80
2020/12/27 00:16:41;;;;;;;;;;;;;;;1.39;97.23;98085.84;5064192;28;19923;-80
2020/12/27 00:19:06;;;;;;;;;;;;;;;1.39;97.19;98074.81;5051153;28;19947;-81
2020/12/27 00:21:32;;;;;;;;;;;;;;;1.35;97.27;98071.50;5049568;28;19916;-80
2020/12/27 00:23:57;;;;;;;;;;;;;;;1.39;96.85;98059.59;5050568;28;19943;-80
2020/12/27 00:26:22;;;;;;;;;;;;;;;1.43;96.76;98049.41;5049761;28;20443;-80
2020/12/27 00:28:48;;;;;;;;;;;;;;;1.42;96.73;98035.06;5067436;28;20400;-80
2020/12/27 00:31:17;;;;;;;;;;;;;;;1.37;96.92;98029.19;5066740;28;20424;-80
2020/12/27 00:33:43;;;;;;;;;;;;;;;1.39;96.53;98031.69;5050960;28;19916;-81
2020/12/27 00:36:08;;;;;;;;;;;;;;;1.37;96.94;98029.19;5050366;28;19920;-80
2020/12/27 00:38:33;;;;;;;;;;;;;;;1.32;96.97;98020.78;5067544;28;20385;-80
2020/12/27 00:40:59;;;;;;;;;;;;;;;1.41;96.49;98037.59;5066987;28;19963;-81
2020/12/27 00:43:25;;;;;;;;;;;;;;;1.33;96.51;98019.09;5085731;28;19912;-80
2020/12/27 00:45:50;;;;;;;;;;;;;;;1.25;96.40;98025.09;5065576;28;19963;-80
2020/12/27 00:48:16;;;;;;;;;;;;;;;1.37;96.60;98002.97;5067294;28;20039;-81
2020/12/27 00:50:41;;;;;;;;;;;;;;;1.40;96.88;97998.72;5051533;28;19962;-81
2020/12/27 00:53:07;;;;;;;;;;;;;;;1.35;96.69;98004.72;5050606;28;19975;-80
2020/12/27 00:55:32;;;;;;;;;;;;;;;1.35;96.96;98014.84;5051547;28;19916;-80
2020/12/27 00:57:57;;;;;;;;;;;;;;;1.29;96.76;97999.69;5061360;28;19923;-80
2020/12/27 01:00:23;;;;;;;;;;;;;;;1.34;96.69;97992.88;5069699;28;19912;-80
2020/12/27 01:02:48;;;;;;;;;;;;;;;1.38;96.49;97985.19;5052870;28;19912;-81
2020/12/27 01:05:13;;;;;;;;;;;;;;;1.37;96.46;97978.47;5070623;28;19946;-80
2020/12/27 01:07:39;;;;;;;;;;;;;;;1.32;96.31;97948.91;5054004;28;20937;-81
2020/12/27 01:10:04;;;;;;;;;;;;;;;1.31;96.57;97949.78;5089172;28;19943;-81
2020/12/27 01:12:29;;;;;;;;;;;;;;;1.33;95.95;97931.16;5053000;28;20011;-81
2020/12/27 01:14:55;;;;;;;;;;;;;;;1.33;96.47;97940.47;5055444;28;19999;-80
2020/12/27 01:17:22;;;;;;;;;;;;;;;1.30;96.23;97940.50;5071002;28;19916;-80
2020/12/27 01:19:48;;;;;;;;;;;;;;;1.37;97.23;97934.47;5071284;28;19931;-80
2020/12/27 01:22:13;;;;;;;;;;;;;;;1.38;95.83;97938.72;5055221;28;19920;-80
2020/12/27 01:24:38;;;;;;;;;;;;;;;1.35;96.78;97924.38;5070410;28;19970;-81
2020/12/27 01:27:04;;;;;;;;;;;;;;;1.31;96.67;97904.13;5054622;28;19945;-80
2020/12/27 01:29:29;;;;;;;;;;;;;;;1.30;96.08;97897.38;5069749;28;20365;-81
2020/12/27 01:32:01;;;;;;;;;;;;;;;1.25;96.27;97905.91;5071175;28;19920;-80
2020/12/27 01:34:27;;;;;;;;;;;;;;;1.34;96.73;97899.03;5071691;28;19993;-81
2020/12/27 01:36:52;;;;;;;;;;;;;;;1.28;96.55;97887.25;5070851;28;19920;-80
2020/12/27 01:39:18;;;;;;;;;;;;;;;1.29;97.01;97880.50;5069899;28;19961;-80
2020/12/27 01:41:43;;;;;;;;;;;;;;;1.18;96.78;97876.38;5088311;28;20380;-81
2020/12/27 01:44:09;;;;;;;;;;;;;;;1.32;97.38;97860.16;5070432;28;19999;-81
2020/12/27 01:46:35;;;;;;;;;;;;;;;1.24;96.33;97834.91;5052749;28;19915;-81
2020/12/27 01:49:01;;;;;;;;;;;;;;;1.26;96.46;97843.34;5070046;28;19912;-80
2020/12/27 01:51:26;;;;;;;;;;;;;;;1.31;96.77;97840.72;5069125;28;19919;-81
2020/12/27 01:53:52;;;;;;;;;;;;;;;1.32;96.53;97837.31;5070809;28;19950;-81
2020/12/27 01:56:18;;;;;;;;;;;;;;;1.28;96.77;97828.06;5068306;28;19981;-80
2020/12/27 01:58:46;;;;;;;;;;;;;;;1.38;96.63;97847.41;5051845;28;19920;-80
2020/12/27 02:01:13;;;;;;;;;;;;;;;1.39;96.63;97841.44;5054252;28;19969;-81
2020/12/27 02:03:39;;;;;;;;;;;;;;;1.35;96.03;97827.97;5069075;28;19947;-80
2020/12/27 02:06:05;;;;;;;;;;;;;;;1.40;96.14;97784.81;5068722;28;19927;-80
2020/12/27 02:08:30;;;;;;;;;;;;;;;1.36;96.07;97768.78;5087218;28;19915;-81
2020/12/27 02:10:56;;;;;;;;;;;;;;;1.30;96.62;97762.94;5069459;28;19948;-81
2020/12/27 02:13:21;;;;;;;;;;;;;;;1.35;96.21;97768.81;5069668;28;20465;-80
2020/12/27 02:15:46;;;;;;;;;;;;;;;1.39;96.45;97757.75;5086828;28;19924;-81
2020/12/27 02:18:12;;;;;;;;;;;;;;;1.37;95.67;97739.16;5051771;28;19916;-80
2020/12/27 02:20:37;;;;;;;;;;;;;;;1.39;95.68;97722.22;5068769;28;19920;-80
2020/12/27 02:23:03;;;;;;;;;;;;;;;1.40;95.88;97719.69;5069586;28;19918;-80
2020/12/27 02:25:28;;;;;;;;;;;;;;;1.39;95.18;97718.03;5067199;28;19912;-80
2020/12/27 02:27:54;;;;;;;;;;;;;;;1.43;96.45;97712.00;5052948;28;19970;-80
2020/12/27 02:30:19;;;;;;;;;;;;;;;1.44;95.83;97697.66;5087401;28;19920;-80
2020/12/27 02:32:44;;;;;;;;;;;;;;;1.40;95.72;97691.78;5067924;28;19927;-80
2020/12/27 02:35:10;;;;;;;;;;;;;;;1.40;95.74;97683.34;5067925;28;19920;-79
2020/12/27 02:37:35;;;;;;;;;;;;;;;1.48;96.00;97666.28;5067372;28;19928;-80
2020/12/27 02:40:00;;;;;;;;;;;;;;;1.43;96.18;97650.28;5067918;28;19927;-80
2020/12/27 02:42:26;;;;;;;;;;;;;;;1.36;95.44;97647.03;5065193;28;19981;-80
2020/12/27 02:47:29;;;;;;;;;;;;;;;1.41;95.72;97624.94;5061318;28;19939;-81
2020/12/27 02:49:54;;;;;;;;;;;;;;;1.48;95.84;97615.53;5063619;28;19916;-80
2020/12/27 02:52:20;;;;;;;;;;;;;;;1.40;95.46;97597.09;5050026;28;19998;-80
2020/12/27 02:54:45;;;;;;;;;;;;;;;1.44;95.33;97588.56;5076360;28;19916;-80
2020/12/27 02:57:10;;;;;;;;;;;;;;;1.44;95.61;97588.56;5066650;28;20373;-80
2020/12/27 02:59:36;;;;;;;;;;;;;;;1.45;95.41;97562.31;5050155;28;20455;-80
2020/12/27 03:02:01;;;;;;;;;;;;;;;1.55;95.02;97571.44;5066663;28;19944;-80
2020/12/27 03:04:27;;;;;;;;;;;;;;;1.51;95.27;97577.44;5050908;28;19920;-80
2020/12/27 03:06:52;;;;;;;;;;;;;;;1.60;95.06;97568.81;5066596;28;19922;-80
2020/12/27 03:09:17;;;;;;;;;;;;;;;1.53;95.33;97568.09;5066089;28;20392;-80
2020/12/27 03:11:43;;;;;;;;;;;;;;;1.54;95.77;97554.53;5064769;28;19959;-80
2020/12/27 03:14:09;;;;;;;;;;;;;;;1.55;94.65;97535.94;5067589;28;20426;-80
2020/12/27 03:16:34;;;;;;;;;;;;;;;1.53;94.42;97524.97;5067032;28;19916;-80
2020/12/27 03:18:59;;;;;;;;;;;;;;;1.58;94.39;97510.50;5049969;28;20292;-80
2020/12/27 03:21:25;;;;;;;;;;;;;;;1.63;94.50;97516.31;5067767;28;20317;-80
2020/12/27 03:23:50;;;;;;;;;;;;;;;1.61;94.34;97499.44;5067479;28;19918;-80
2020/12/27 03:26:15;;;;;;;;;;;;;;;1.65;94.10;97494.28;5067367;28;20055;-80
2020/12/27 03:28:41;;;;;;;;;;;;;;;1.60;94.65;97501.16;5050683;28;19922;-80
2020/12/27 03:31:06;;;;;;;;;;;;;;;1.63;95.07;97507.84;5049770;28;19916;-80
2020/12/27 03:33:32;;;;;;;;;;;;;;;1.62;94.58;97511.25;5050969;28;19970;-80
2020/12/27 03:35:57;;;;;;;;;;;;;;;1.67;94.68;97497.63;5058136;28;20576;-80
2020/12/27 03:38:23;;;;;;;;;;;;;;;1.64;94.67;97497.69;5067597;28;20380;-80
2020/12/27 03:40:48;;;;;;;;;;;;;;;1.68;94.87;97484.03;5066433;28;19916;-80
2020/12/27 03:43:14;;;;;;;;;;;;;;;1.67;95.21;97469.69;5085296;28;19916;-80
2020/12/27 03:45:41;;;;;;;;;;;;;;;1.64;94.16;97454.56;5065863;28;20488;-80
2020/12/27 03:48:07;;;;;;;;;;;;;;;1.73;94.33;97450.13;5085488;28;20363;-81
2020/12/27 03:50:32;;;;;;;;;;;;;;;1.70;93.99;97427.38;5061224;28;19926;-80
2020/12/27 03:52:57;;;;;;;;;;;;;;;1.70;94.48;97427.38;5050594;28;19916;-80
2020/12/27 03:55:23;;;;;;;;;;;;;;;1.73;95.13;97437.44;5065780;28;20289;-80
2020/12/27 03:57:48;;;;;;;;;;;;;;;1.75;94.40;97435.72;5049219;28;19915;-80
2020/12/27 04:00:13;;;;;;;;;;;;;;;1.78;94.27;97407.72;5064996;28;19928;-81
2020/12/27 04:02:39;;;;;;;;;;;;;;;1.72;94.11;97395.19;5066511;28;19920;-80
2020/12/27 04:05:04;;;;;;;;;;;;;;;1.74;93.61;97375.69;5066279;28;20884;-80
2020/12/27 04:07:33;;;;;;;;;;;;;;;1.75;93.44;97364.66;5049426;28;19928;-80
2020/12/27 04:09:58;;;;;;;;;;;;;;;1.78;93.77;97362.88;5049801;28;19916;-80
2020/12/27 04:12:24;;;;;;;;;;;;;;;1.78;93.91;97359.50;5064367;28;19977;-81
2020/12/27 04:14:49;;;;;;;;;;;;;;;1.85;93.03;97336.50;5046830;28;19927;-80
2020/12/27 04:17:15;;;;;;;;;;;;;;;1.77;93.86;97342.59;5063069;28;19964;-80
2020/12/27 04:19:40;;;;;;;;;;;;;;;1.87;93.66;97332.22;5055502;28;19935;-80
2020/12/27 04:22:05;;;;;;;;;;;;;;;1.84;93.67;97344.97;5061938;28;19925;-80
2020/12/27 04:24:31;;;;;;;;;;;;;;;1.93;94.07;97340.53;5043944;28;20432;-81
2020/12/27 04:26:56;;;;;;;;;;;;;;;1.84;93.59;97326.38;5062961;28;19917;-80
2020/12/27 04:29:22;;;;;;;;;;;;;;;1.89;94.21;97316.94;5029313;28;19999;-80
2020/12/27 04:31:51;;;;;;;;;;;;;;;1.85;94.10;97300.13;5029728;28;19912;-80
2020/12/27 04:34:16;;;;;;;;;;;;;;;1.86;93.50;97291.63;5029100;28;19917;-80
2020/12/27 04:36:42;;;;;;;;;;;;;;;1.86;93.85;97272.16;5029939;28;19924;-80
2020/12/27 04:39:07;;;;;;;;;;;;;;;1.88;93.79;97236.59;5045023;28;20293;-80
2020/12/27 04:41:32;;;;;;;;;;;;;;;1.87;93.31;97238.31;5045173;28;19935;-80
2020/12/27 04:43:58;;;;;;;;;;;;;;;1.92;93.78;97243.25;5046810;28;19916;-80
2020/12/27 04:46:23;;;;;;;;;;;;;;;1.94;93.48;97238.97;5044886;28;19930;-80
2020/12/27 04:48:51;;;;;;;;;;;;;;;1.96;93.32;97265.16;5029059;28;19924;-80
2020/12/27 04:51:16;;;;;;;;;;;;;;;1.95;93.51;97250.78;5037209;28;19912;-80
2020/12/27 04:53:42;;;;;;;;;;;;;;;1.96;93.32;97244.84;5046488;28;20867;-80
2020/12/27 04:56:07;;;;;;;;;;;;;;;1.99;93.18;97232.06;5045010;28;19931;-80
2020/12/27 04:58:33;;;;;;;;;;;;;;;2.00;93.00;97228.63;5035913;28;19956;-80
2020/12/27 05:00:59;;;;;;;;;;;;;;;2.00;92.97;97217.66;5044794;28;19917;-80
2020/12/27 05:03:24;;;;;;;;;;;;;;;1.98;93.17;97212.59;5029086;28;19992;-80
2020/12/27 05:05:53;;;;;;;;;;;;;;;1.99;93.76;97209.22;5043890;28;20317;-80
2020/12/27 05:08:19;;;;;;;;;;;;;;;1.92;93.21;97194.19;5045358;28;19939;-80
2020/12/27 05:10:44;;;;;;;;;;;;;;;1.95;93.63;97183.94;5045271;28;19921;-80
2020/12/27 05:13:14;;;;;;;;;;;;;;;1.97;93.80;97159.38;5063572;28;19916;-80
2020/12/27 05:15:39;;;;;;;;;;;;;;;1.98;93.78;97159.31;5045507;28;20019;-80
2020/12/27 05:18:04;;;;;;;;;;;;;;;2.03;93.64;97154.09;5028871;28;19999;-79
2020/12/27 05:20:33;;;;;;;;;;;;;;;1.96;93.36;97160.22;5061243;28;19924;-81
2020/12/27 05:22:59;;;;;;;;;;;;;;;1.94;93.40;97132.34;5065080;28;19912;-80
2020/12/27 05:25:25;;;;;;;;;;;;;;;1.95;93.63;97128.94;5066368;28;19916;-80
2020/12/27 05:27:50;;;;;;;;;;;;;;;1.98;93.51;97123.75;5049438;28;19942;-80
2020/12/27 05:30:16;;;;;;;;;;;;;;;1.98;93.81;97123.75;5065545;28;19959;-80
2020/12/27 05:32:44;;;;;;;;;;;;;;;2.01;93.81;97108.47;5065017;28;19916;-80
2020/12/27 05:35:10;;;;;;;;;;;;;;;2.09;93.16;97121.75;5064510;28;19917;-80
2020/12/27 05:37:36;;;;;;;;;;;;;;;2.03;93.21;97083.88;5083092;28;20049;-80
2020/12/27 05:40:03;;;;;;;;;;;;;;;2.11;94.14;97090.44;5066985;28;20288;-80
2020/12/27 05:42:29;;;;;;;;;;;;;;;2.12;93.44;97094.63;5065653;28;19915;-80
2020/12/27 05:44:54;;;;;;;;;;;;;;;2.11;92.87;97077.72;5051060;28;19920;-80
2020/12/27 05:47:20;;;;;;;;;;;;;;;2.05;93.91;97092.28;5051625;28;20439;-79
2020/12/27 05:49:45;;;;;;;;;;;;;;;2.09;93.10;97050.66;5086716;28;19928;-80
2020/12/27 05:52:15;;;;;;;;;;;;;;;2.11;93.01;97067.56;5068581;28;19916;-80
2020/12/27 05:54:44;;;;;;;;;;;;;;;2.05;93.35;97035.56;5068363;28;20392;-81
2020/12/27 05:57:10;;;;;;;;;;;;;;;2.14;93.50;97047.16;5068269;28;19916;-80
2020/12/27 05:59:35;;;;;;;;;;;;;;;2.06;93.31;97073.59;5051932;28;19922;-81
2020/12/27 06:02:01;;;;;;;;;;;;;;;2.04;93.16;97057.59;5067107;28;20606;-80
2020/12/27 06:04:38;;;;;;;;;;;;;;;2.13;92.96;97050.59;5052115;28;20343;-80
2020/12/27 06:07:05;;;;;;;;;;;;;;;2.07;93.40;97027.03;5086471;28;19931;-80
2020/12/27 06:09:33;;;;;;;;;;;;;;;2.13;92.98;97040.44;5059712;28;20352;-80
2020/12/27 06:12:01;;;;;;;;;;;;;;;2.11;93.61;97022.69;5059798;28;19916;-80
2020/12/27 06:14:37;;;;;;;;;;;;;;;2.11;93.00;97037.09;5086288;28;19916;-80
2020/12/27 06:17:04;;;;;;;;;;;;;;;2.09;93.25;97020.19;5068486;28;20057;-80
2020/12/27 06:19:52;;;;;;;;;;;;;;;2.08;93.04;97017.72;5050837;28;19924;-81
2020/12/27 06:22:18;;;;;;;;;;;;;;;2.09;93.04;96993.97;5071406;28;19916;-80
2020/12/27 06:24:44;;;;;;;;;;;;;;;2.03;93.55;96977.25;5068430;28;19970;-81
2020/12/27 06:27:09;;;;;;;;;;;;;;;1.94;93.56;96990.22;5066601;28;19950;-80
2020/12/27 06:29:35;;;;;;;;;;;;;;;2.03;93.87;96973.84;5051071;28;20419;-81
2020/12/27 06:32:04;;;;;;;;;;;;;;;1.93;93.86;96980.91;5067261;28;19958;-80
2020/12/27 06:34:30;;;;;;;;;;;;;;;1.93;94.15;96968.22;5067711;28;19959;-80
2020/12/27 06:36:57;;;;;;;;;;;;;;;2.00;94.10;96941.78;5068224;28;19967;-80
2020/12/27 06:39:26;;;;;;;;;;;;;;;1.93;93.97;96953.00;5067564;28;19916;-80
2020/12/27 06:42:04;;;;;;;;;;;;;;;1.95;94.16;96971.56;5067586;28;19923;-80
2020/12/27 06:44:39;;;;;;;;;;;;;;;1.96;94.04;96952.91;5085648;28;19916;-81
2020/12/27 06:47:04;;;;;;;;;;;;;;;1.98;93.54;96925.75;5084518;28;20015;-81
2020/12/27 06:49:29;;;;;;;;;;;;;;;1.98;93.44;96943.53;5065715;28;20015;-80
2020/12/27 06:51:54;;;;;;;;;;;;;;;2.01;94.01;96945.16;5067308;28;20003;-80
2020/12/27 06:54:36;;;;;;;;;;;;;;;1.99;93.79;96931.69;5051081;28;20478;-80
2020/12/27 06:57:02;;;;;;;;;;;;;;;1.98;93.63;96930.00;5065046;28;19919;-80
2020/12/27 06:59:27;;;;;;;;;;;;;;;1.97;94.10;96924.09;5066968;28;19916;-80
2020/12/27 07:02:11;;;;;;;;;;;;;;;1.99;94.16;96919.81;5067948;28;19916;-80
2020/12/27 07:04:37;;;;;;;;;;;;;;;2.05;94.00;96909.47;5067829;28;19916;-80
2020/12/27 07:07:02;;;;;;;;;;;;;;;2.00;93.82;96893.53;5067551;28;19993;-81
2020/12/27 07:09:30;;;;;;;;;;;;;;;1.99;93.63;96896.16;5066965;28;20335;-80
2020/12/27 07:12:06;;;;;;;;;;;;;;;1.98;94.44;96900.38;5066673;28;19970;-80
2020/12/27 07:14:35;;;;;;;;;;;;;;;2.00;93.71;96870.69;5066535;28;19923;-79
2020/12/27 07:17:01;;;;;;;;;;;;;;;1.97;94.02;96887.75;5037767;28;19974;-81
2020/12/27 07:19:26;;;;;;;;;;;;;;;1.99;93.65;96889.34;5049880;28;19979;-80
2020/12/27 07:21:54;;;;;;;;;;;;;;;1.91;94.66;96878.59;5066964;28;19912;-80
2020/12/27 07:24:21;;;;;;;;;;;;;;;1.96;94.08;96869.16;5066650;28;20018;-80
2020/12/27 07:26:47;;;;;;;;;;;;;;;1.90;93.98;96835.53;5066543;28;19972;-79
2020/12/27 07:29:14;;;;;;;;;;;;;;;1.89;93.99;96849.91;5051105;28;19920;-80
2020/12/27 07:31:40;;;;;;;;;;;;;;;1.93;94.07;96846.38;5051073;28;19920;-80
2020/12/27 07:34:06;;;;;;;;;;;;;;;1.95;94.15;96824.31;5067832;28;19916;-80
2020/12/27 07:36:32;;;;;;;;;;;;;;;1.92;93.99;96809.22;5066106;28;19943;-79
2020/12/27 07:39:01;;;;;;;;;;;;;;;1.87;94.08;96811.03;5067174;28;20405;-80
2020/12/27 07:41:27;;;;;;;;;;;;;;;1.98;94.44;96819.13;5063915;28;20361;-80
2020/12/27 07:43:53;;;;;;;;;;;;;;;1.94;94.16;96806.59;5034045;28;19948;-80
2020/12/27 07:46:19;;;;;;;;;;;;;;;1.90;94.21;96780.50;5067033;28;20367;-80
2020/12/27 07:48:44;;;;;;;;;;;;;;;1.96;94.06;96759.16;5051036;28;20377;-79
2020/12/27 07:51:13;;;;;;;;;;;;;;;1.92;93.98;96761.00;5051246;28;19919;-80
2020/12/27 07:53:43;;;;;;;;;;;;;;;1.99;94.18;96759.91;5050397;28;19944;-80
2020/12/27 07:56:13;;;;;;;;;;;;;;;2.03;93.36;96761.47;5087278;28;19945;-80
2020/12/27 07:58:39;;;;;;;;;;;;;;;1.98;93.76;96737.91;5067655;28;20331;-80
2020/12/27 08:01:04;;;;;;;;;;;;;;;1.96;93.62;96710.94;5050118;28;19916;-80
2020/12/27 08:03:29;;;;;;;;;;;;;;;1.98;94.19;96748.06;5051087;28;20382;-80
2020/12/27 08:06:01;;;;;;;;;;;;;;;1.95;93.63;96732.94;5050755;28;19919;-79
2020/12/27 08:08:26;;;;;;;;;;;;;;;2.09;93.57;96700.28;5065996;28;20015;-80
2020/12/27 08:10:53;;;;;;;;;;;;;;;2.13;93.46;96710.38;5057550;28;20023;-79
2020/12/27 08:13:20;;;;;;;;;;;;;;;2.09;93.11;96712.16;5050806;28;19912;-79
2020/12/27 08:15:45;;;;;;;;;;;;;;;2.07;93.56;96691.91;5049655;28;20606;-79
2020/12/27 08:18:11;;;;;;;;;;;;;;;2.17;93.90;96722.06;5084803;28;19928;-79
2020/12/27 08:20:46;;;;;;;;;;;;;;;2.14;93.58;96689.97;5066521;28;19924;-78
2020/12/27 08:23:11;;;;;;;;;;;;;;;2.20;93.40;96694.03;5039665;28;19961;-79
2020/12/27 08:25:38;;;;;;;;;;;;;;;2.25;93.39;96697.22;5065964;28;19920;-79
2020/12/27 08:28:04;;;;;;;;;;;;;;;2.30;92.63;96708.88;5065759;28;19919;-80
2020/12/27 08:30:30;;;;;;;;;;;;;;;2.17;93.55;96654.34;5063420;28;21417;-80
2020/12/27 08:33:02;;;;;;;;;;;;;;;2.18;93.40;96678.00;5055944;28;19994;-79
2020/12/27 08:35:27;;;;;;;;;;;;;;;2.14;93.47;96656.16;5061225;28;19921;-80
2020/12/27 08:37:53;;;;;;;;;;;;;;;2.11;93.75;96636.78;5063409;28;19928;-80
2020/12/27 08:40:18;;;;;;;;;;;;;;;2.16;94.02;96639.16;5063979;28;20463;-79
2020/12/27 08:42:45;;;;;;;;;;;;;;;2.18;94.05;96638.22;5048574;28;19912;-79
2020/12/27 08:45:17;;;;;;;;;;;;;;;2.18;93.85;96612.81;5065772;28;19946;-80
2020/12/27 08:47:44;;;;;;;;;;;;;;;2.23;93.94;96627.88;5048606;28;19920;-79
2020/12/27 08:50:13;;;;;;;;;;;;;;;2.25;93.54;96644.72;5083987;28;19984;-79
2020/12/27 08:52:38;;;;;;;;;;;;;;;2.26;94.17;96643.84;5067489;28;20396;-79
2020/12/27 08:55:04;;;;;;;;;;;;;;;2.28;93.97;96638.69;5049767;28;19925;-79
2020/12/27 08:57:30;;;;;;;;;;;;;;;2.30;94.05;96642.00;5050650;28;19912;-79
2020/12/27 08:59:59;;;;;;;;;;;;;;;2.33;93.82;96596.19;5068687;28;19916;-80
2020/12/27 09:02:24;;;;;;;;;;;;;;;2.30;93.88;96603.91;5065436;28;19995;-79
2020/12/27 09:04:59;;;;;;;;;;;;;;;2.29;93.72;96614.97;5065558;28;20020;-79
2020/12/27 09:07:29;;;;;;;;;;;;;;;2.25;94.15;96601.53;5063472;28;20289;-80
2020/12/27 09:10:02;;;;;;;;;;;;;;;2.26;93.70;96569.38;5083210;28;19923;-79
2020/12/27 09:12:27;;;;;;;;;;;;;;;2.37;93.37;96602.78;5083720;28;19948;-79
2020/12/27 09:14:53;;;;;;;;;;;;;;;2.43;93.62;96582.25;5066240;28;20006;-79
2020/12/27 09:17:18;;;;;;;;;;;;;;;2.39;93.73;96551.94;5065810;28;20192;-81
2020/12/27 09:19:47;;;;;;;;;;;;;;;2.38;93.96;96546.03;5067909;28;19928;-80
2020/12/27 09:22:12;;;;;;;;;;;;;;;2.41;93.74;96550.16;5070756;28;19916;-79
2020/12/27 09:24:37;;;;;;;;;;;;;;;2.35;93.53;96551.25;5053550;28;19920;-80
2020/12/27 09:27:10;;;;;;;;;;;;;;;2.45;93.65;96539.84;5070200;28;20401;-79
2020/12/27 09:29:35;;;;;;;;;;;;;;;2.43;93.72;96544.13;5069289;28;20369;-80
2020/12/27 09:32:07;;;;;;;;;;;;;;;2.43;93.69;96526.38;5052843;28;19923;-79
2020/12/27 09:34:33;;;;;;;;;;;;;;;2.39;93.55;96504.50;5053937;28;19923;-79
2020/12/27 09:37:10;;;;;;;;;;;;;;;2.40;93.33;96516.34;5068555;28;20010;-80
2020/12/27 09:39:35;;;;;;;;;;;;;;;2.41;93.15;96492.56;5071401;28;19920;-80
2020/12/27 09:42:00;;;;;;;;;;;;;;;2.42;93.27;96478.19;5069722;28;19974;-79
2020/12/27 09:44:30;;;;;;;;;;;;;;;2.40;93.55;96473.16;5067509;28;20495;-80
2020/12/27 09:46:56;;;;;;;;;;;;;;;2.50;93.41;96463.44;5061838;28;20039;-79
2020/12/27 09:49:22;;;;;;;;;;;;;;;2.44;93.71;96456.91;5046509;28;20675;-79
2020/12/27 09:52:07;;;;;;;;;;;;;;;2.48;93.57;96452.50;5084620;28;19912;-79
2020/12/27 09:54:36;;;;;;;;;;;;;;;2.43;93.29;96442.53;5066111;28;19943;-79
2020/12/27 09:57:14;;;;;;;;;;;;;;;2.49;93.25;96438.94;5047754;28;20003;-80
2020/12/27 09:59:39;;;;;;;;;;;;;;;2.49;93.18;96419.44;5067491;28;19916;-79
2020/12/27 10:02:05;;;;;;;;;;;;;;;2.52;92.98;96403.25;5068912;28;20706;-79
2020/12/27 10:04:30;;;;;;;;;;;;;;;2.55;93.55;96403.09;5056382;28;19955;-79
2020/12/27 10:06:55;;;;;;;;;;;;;;;2.59;93.29;96429.22;5065839;28;19916;-80
2020/12/27 10:09:21;;;;;;;;;;;;;;;2.55;93.49;96405.63;5060408;28;20369;-80
2020/12/27 10:11:46;;;;;;;;;;;;;;;2.57;93.44;96382.72;5051129;28;19920;-79
2020/12/27 10:14:12;;;;;;;;;;;;;;;2.56;93.50;96398.88;5066317;28;19928;-79
2020/12/27 10:16:37;;;;;;;;;;;;;;;2.59;93.04;96386.03;5049410;28;19966;-80
2020/12/27 10:19:02;;;;;;;;;;;;;;;2.65;93.60;96413.72;5051586;28;19954;-79
2020/12/27 10:21:28;;;;;;;;;;;;;;;2.59;93.89;96363.16;5063568;28;19931;-79
2020/12/27 10:23:53;;;;;;;;;;;;;;;2.66;93.97;96355.19;5064424;28;20003;-80
2020/12/27 10:26:18;;;;;;;;;;;;;;;2.61;93.98;96367.28;5046880;28;19923;-80
2020/12/27 10:28:44;;;;;;;;;;;;;;;2.61;94.42;96325.81;5041095;28;19986;-80
2020/12/27 10:31:09;;;;;;;;;;;;;;;2.58;94.52;96326.78;5029120;28;20430;-80
2020/12/27 10:33:35;;;;;;;;;;;;;;;2.65;94.49;96290.03;5045205;28;19922;-80
2020/12/27 10:36:00;;;;;;;;;;;;;;;2.66;94.29;96308.66;5046456;28;20023;-80
2020/12/27 10:38:25;;;;;;;;;;;;;;;2.71;93.88;96322.81;5045710;28;20702;-80
2020/12/27 10:40:51;;;;;;;;;;;;;;;2.65;94.21;96323.06;5047642;28;19919;-80
2020/12/27 10:43:17;;;;;;;;;;;;;;;2.67;93.88;96300.16;5031028;28;19924;-80
2020/12/27 10:45:43;;;;;;;;;;;;;;;2.67;94.34;96310.31;5031899;28;19953;-80
2020/12/27 10:48:08;;;;;;;;;;;;;;;2.71;94.22;96309.25;5065004;28;19916;-80
2020/12/27 10:50:36;;;;;;;;;;;;;;;2.71;93.93;96282.16;5037385;28;19920;-80
2020/12/27 10:53:02;;;;;;;;;;;;;;;2.77;93.77;96300.56;5029230;28;19916;-81
2020/12/27 10:55:27;;;;;;;;;;;;;;;2.79;93.71;96284.34;5043179;28;19978;-81
2020/12/27 10:57:53;;;;;;;;;;;;;;;2.86;93.36;96295.06;5029705;28;19921;-81
2020/12/27 11:00:18;;;;;;;;;;;;;;;2.77;94.27;96273.41;5046627;28;20406;-81
2020/12/27 11:02:43;;;;;;;;;;;;;;;2.84;93.79;96292.59;5048536;28;20030;-81
2020/12/27 11:05:09;;;;;;;;;;;;;;;2.82;94.30;96268.94;5030975;28;19970;-81
2020/12/27 11:07:34;;;;;;;;;;;;;;;2.80;94.27;96242.78;5028781;28;19920;-80
2020/12/27 11:10:00;;;;;;;;;;;;;;;2.89;94.44;96239.81;5047665;28;19959;-81
2020/12/27 11:12:25;;;;;;;;;;;;;;;2.89;95.02;96227.09;5065896;28;20003;-81
2020/12/27 11:14:51;;;;;;;;;;;;;;;2.85;94.76;96202.75;5045894;28;20393;-81
2020/12/27 11:17:17;;;;;;;;;;;;;;;2.87;95.12;96206.06;5047214;28;20406;-81
2020/12/27 11:19:42;;;;;;;;;;;;;;;2.86;94.90;96168.81;5036387;28;19955;-81
2020/12/27 11:22:07;;;;;;;;;;;;;;;2.90;95.58;96193.19;5062856;28;20636;-82
2020/12/27 11:24:33;;;;;;;;;;;;;;;2.93;95.03;96154.91;5045272;28;19954;-82
2020/12/27 11:26:58;;;;;;;;;;;;;;;2.92;95.37;96173.59;5066206;28;19916;-82
2020/12/27 11:29:24;;;;;;;;;;;;;;;2.92;95.36;96163.44;5065148;28;19924;-83
2020/12/27 11:31:51;;;;;;;;;;;;;;;2.94;95.68;96165.88;5066229;28;20493;-82
2020/12/27 11:34:17;;;;;;;;;;;;;;;2.95;95.39;96138.78;5049603;28;20614;-82
2020/12/27 11:36:45;;;;;;;;;;;;;;;2.87;95.97;96150.13;5066026;28;19931;-82
2020/12/27 11:39:11;;;;;;;;;;;;;;;2.87;96.41;96126.41;5041824;28;19931;-82
2020/12/27 11:41:36;;;;;;;;;;;;;;;2.86;96.44;96107.00;5052592;28;19920;-83
2020/12/27 11:44:01;;;;;;;;;;;;;;;2.82;96.77;96116.47;5067547;28;20895;-83
2020/12/27 11:46:27;;;;;;;;;;;;;;;2.85;96.49;96096.00;5051512;28;19943;-84
2020/12/27 11:48:52;;;;;;;;;;;;;;;2.86;96.08;96067.13;5057132;28;19941;-84
2020/12/27 11:51:17;;;;;;;;;;;;;;;2.89;96.64;96100.03;5082998;28;19927;-83
2020/12/27 11:53:43;;;;;;;;;;;;;;;2.90;96.17;96083.88;5049340;28;19947;-83
2020/12/27 11:56:08;;;;;;;;;;;;;;;2.92;96.29;96077.03;5053262;28;20324;-83
2020/12/27 11:58:33;;;;;;;;;;;;;;;2.90;96.73;96068.63;5065923;28;20297;-83
2020/12/27 12:00:59;;;;;;;;;;;;;;;2.91;96.46;96052.47;5067638;28;20285;-83
2020/12/27 12:03:24;;;;;;;;;;;;;;;2.87;97.03;96078.13;5050781;28;20408;-83
2020/12/27 12:05:50;;;;;;;;;;;;;;;2.88;96.80;96060.25;5084843;28;19916;-83
2020/12/27 12:08:15;;;;;;;;;;;;;;;2.90;97.18;96066.09;5050394;28;19927;-84
2020/12/27 12:10:40;;;;;;;;;;;;;;;2.90;97.06;96043.22;5067395;28;19945;-85
2020/12/27 12:13:06;;;;;;;;;;;;;;;2.84;97.19;96035.06;5065866;28;20830;-84
2020/12/27 12:15:31;;;;;;;;;;;;;;;2.70;97.78;96034.03;5065733;28;19927;-84
2020/12/27 12:17:57;;;;;;;;;;;;;;;2.73;97.91;96012.72;5048909;28;19982;-84
2020/12/27 12:23:06;;;;;;;;;;;;;;;2.67;98.58;96010.50;5069968;28;20002;-84
2020/12/27 12:25:31;;;;;;;;;;;;;;;2.68;99.01;95999.44;5053878;28;19912;-83
2020/12/27 12:27:57;;;;;;;;;;;;;;;2.65;99.33;95997.88;5065835;28;20378;-83
2020/12/27 12:30:24;;;;;;;;;;;;;;;2.61;99.24;95986.19;5048976;28;19916;-83
2020/12/27 12:32:50;;;;;;;;;;;;;;;2.55;98.97;95955.19;5064686;28;20053;-83
2020/12/27 12:35:15;;;;;;;;;;;;;;;2.44;100.00;95976.88;5048885;28;20007;-85
2020/12/27 12:37:40;;;;;;;;;;;;;;;2.47;99.92;95974.16;5065050;28;20401;-83
2020/12/27 12:40:06;;;;;;;;;;;;;;;2.48;99.93;95980.06;5048054;28;19916;-85
2020/12/27 12:42:35;;;;;;;;;;;;;;;2.46;99.68;95936.97;5057197;28;19916;-84
2020/12/27 12:45:01;;;;;;;;;;;;;;;2.42;100.00;95943.09;5041573;28;20382;-84
2020/12/27 12:47:26;;;;;;;;;;;;;;;2.41;100.00;95938.91;5049472;28;19948;-86
2020/12/27 12:49:52;;;;;;;;;;;;;;;2.44;99.95;95918.44;5065009;28;19927;-85
2020/12/27 12:52:17;;;;;;;;;;;;;;;2.33;100.00;95914.78;5054145;28;19920;-85
2020/12/27 12:54:43;;;;;;;;;;;;;;;2.35;100.00;95921.44;5062874;28;20408;-85
2020/12/27 12:57:08;;;;;;;;;;;;;;;2.32;100.00;95929.19;5058944;28;19947;-85
2020/12/27 12:59:37;;;;;;;;;;;;;;;2.36;100.00;95914.63;5049184;28;20397;-86